sensor_id;sensor_type;location;lat;lon;timestamp;temperature;humidity
15103;DHT22;7652;53.584;9.998;2023-08-24T00:00:06;20.20;99.90
15103;DHT22;7652;53.584;9.998;2023-08-24T00:03:28;20.20;99.90
15103;DHT22;7652;53.584;9.998;2023-08-24T00:06:49;20.10;99.90
15103;DHT22;7652;53.584;9.998;2023-08-24T00:10:13;20.20;99.90
15103;DHT22;7652;53.584;9.998;2023-08-24T00:13:35;20.20;99.90
15103;DHT22;7652;53.584;9.998;2023-08-24T00:16:57;20.20;99.90
15103;DHT22;7652;53.584;9.998;2023-08-24T00:20:19;20.20;99.90
15103;DHT22;7652;53.584;9.998;2023-08-24T00:23:40;20.10;99.90
15103;DHT22;7652;53.584;9.998;2023-08-24T00:27:03;20.10;99.90
15103;DHT22;7652;53.584;9.998;2023-08-24T00:30:24;20.00;99.90
15103;DHT22;7652;53.584;9.998;2023-08-24T00:33:46;20.10;99.90
15103;DHT22;7652;53.584;9.998;2023-08-24T00:37:07;20.10;99.90
15103;DHT22;7652;53.584;9.998;2023-08-24T00:40:28;20.10;99.90
15103;DHT22;7652;53.584;9.998;2023-08-24T00:43:51;20.10;99.90
15103;DHT22;7652;53.584;9.998;2023-08-24T00:47:14;20.00;99.90
15103;DHT22;7652;53.584;9.998;2023-08-24T00:50:36;20.10;99.90
15103;DHT22;7652;53.584;9.998;2023-08-24T00:53:57;20.10;99.90
15103;DHT22;7652;53.584;9.998;2023-08-24T00:57:19;20.10;99.90
15103;DHT22;7652;53.584;9.998;2023-08-24T01:00:43;20.10;99.90
15103;DHT22;7652;53.584;9.998;2023-08-24T01:04:04;20.00;99.90
15103;DHT22;7652;53.584;9.998;2023-08-24T01:07:28;20.00;99.90
15103;DHT22;7652;53.584;9.998;2023-08-24T01:10:57;19.90;99.90
15103;DHT22;7652;53.584;9.998;2023-08-24T01:14:26;19.90;99.90
15103;DHT22;7652;53.584;9.998;2023-08-24T01:17:56;19.90;99.90
15103;DHT22;7652;53.584;9.998;2023-08-24T01:21:20;19.80;99.90
15103;DHT22;7652;53.584;9.998;2023-08-24T01:24:46;19.70;99.90
15103;DHT22;7652;53.584;9.998;2023-08-24T01:28:10;19.70;99.90
15103;DHT22;7652;53.584;9.998;2023-08-24T01:31:34;19.70;99.90
15103;DHT22;7652;53.584;9.998;2023-08-24T01:34:55;19.60;99.90
15103;DHT22;7652;53.584;9.998;2023-08-24T01:38:17;19.70;99.90
15103;DHT22;7652;53.584;9.998;2023-08-24T01:41:40;19.70;99.90
15103;DHT22;7652;53.584;9.998;2023-08-24T01:45:06;19.60;99.90
15103;DHT22;7652;53.584;9.998;2023-08-24T01:48:29;19.50;99.90
15103;DHT22;7652;53.584;9.998;2023-08-24T01:51:51;19.50;99.90
15103;DHT22;7652;53.584;9.998;2023-08-24T01:55:13;19.40;99.90
15103;DHT22;7652;53.584;9.998;2023-08-24T01:58:35;19.40;99.90
15103;DHT22;7652;53.584;9.998;2023-08-24T02:01:58;19.30;99.90
15103;DHT22;7652;53.584;9.998;2023-08-24T02:05:20;19.30;99.90
15103;DHT22;7652;53.584;9.998;2023-08-24T02:08:41;19.30;99.90
15103;DHT22;7652;53.584;9.998;2023-08-24T02:12:04;19.30;99.90
15103;DHT22;7652;53.584;9.998;2023-08-24T02:15:26;19.30;99.90
15103;DHT22;7652;53.584;9.998;2023-08-24T02:18:49;19.20;99.90
15103;DHT22;7652;53.584;9.998;2023-08-24T02:22:11;19.20;99.90
15103;DHT22;7652;53.584;9.998;2023-08-24T02:25:32;19.20;99.90
15103;DHT22;7652;53.584;9.998;2023-08-24T02:28:54;19.20;99.90
15103;DHT22;7652;53.584;9.998;2023-08-24T02:32:16;19.20;99.90
15103;DHT22;7652;53.584;9.998;2023-08-24T02:35:39;19.10;99.90
15103;DHT22;7652;53.584;9.998;2023-08-24T02:39:01;19.10;99.90
15103;DHT22;7652;53.584;9.998;2023-08-24T02:42:23;19.10;99.90
15103;DHT22;7652;53.584;9.998;2023-08-24T02:45:44;19.00;99.90
15103;DHT22;7652;53.584;9.998;2023-08-24T02:49:06;19.00;99.90
15103;DHT22;7652;53.584;9.998;2023-08-24T02:52:29;18.90;99.90
15103;DHT22;7652;53.584;9.998;2023-08-24T02:55:51;18.90;99.90
15103;DHT22;7652;53.584;9.998;2023-08-24T02:59:13;18.80;99.90
15103;DHT22;7652;53.584;9.998;2023-08-24T03:02:34;18.70;99.90
15103;DHT22;7652;53.584;9.998;2023-08-24T03:05:57;18.70;99.90
15103;DHT22;7652;53.584;9.998;2023-08-24T03:09:20;18.70;99.90
15103;DHT22;7652;53.584;9.998;2023-08-24T03:12:42;18.70;99.90
15103;DHT22;7652;53.584;9.998;2023-08-24T03:16:04;18.70;99.90
15103;DHT22;7652;53.584;9.998;2023-08-24T03:19:26;18.70;99.90
15103;DHT22;7652;53.584;9.998;2023-08-24T03:22:48;18.70;99.90
15103;DHT22;7652;53.584;9.998;2023-08-24T03:26:10;18.70;99.90
15103;DHT22;7652;53.584;9.998;2023-08-24T03:29:32;18.70;99.90
15103;DHT22;7652;53.584;9.998;2023-08-24T03:32:54;18.60;99.90
15103;DHT22;7652;53.584;9.998;2023-08-24T03:36:16;18.60;99.90
15103;DHT22;7652;53.584;9.998;2023-08-24T03:39:40;18.60;99.90
15103;DHT22;7652;53.584;9.998;2023-08-24T03:43:03;18.60;99.90
15103;DHT22;7652;53.584;9.998;2023-08-24T03:46:25;18.60;99.90
15103;DHT22;7652;53.584;9.998;2023-08-24T03:49:47;18.50;99.90
15103;DHT22;7652;53.584;9.998;2023-08-24T03:53:08;18.40;99.90
15103;DHT22;7652;53.584;9.998;2023-08-24T03:56:30;18.40;99.90
15103;DHT22;7652;53.584;9.998;2023-08-24T03:59:53;18.40;99.90
15103;DHT22;7652;53.584;9.998;2023-08-24T04:03:14;18.30;99.90
15103;DHT22;7652;53.584;9.998;2023-08-24T04:06:36;18.30;99.90
15103;DHT22;7652;53.584;9.998;2023-08-24T04:09:57;18.30;99.90
15103;DHT22;7652;53.584;9.998;2023-08-24T04:13:19;18.30;99.90
15103;DHT22;7652;53.584;9.998;2023-08-24T04:16:42;18.30;99.90
15103;DHT22;7652;53.584;9.998;2023-08-24T04:20:04;18.30;99.90
15103;DHT22;7652;53.584;9.998;2023-08-24T04:23:28;18.20;99.90
15103;DHT22;7652;53.584;9.998;2023-08-24T04:26:49;18.20;99.90
15103;DHT22;7652;53.584;9.998;2023-08-24T04:30:11;18.20;99.90
15103;DHT22;7652;53.584;9.998;2023-08-24T04:33:35;18.20;99.90
15103;DHT22;7652;53.584;9.998;2023-08-24T04:36:57;18.20;99.90
15103;DHT22;7652;53.584;9.998;2023-08-24T04:40:18;18.20;99.90
15103;DHT22;7652;53.584;9.998;2023-08-24T04:43:40;18.20;99.90
15103;DHT22;7652;53.584;9.998;2023-08-24T04:47:01;18.20;99.90
15103;DHT22;7652;53.584;9.998;2023-08-24T04:50:24;18.10;99.90
15103;DHT22;7652;53.584;9.998;2023-08-24T04:53:46;18.10;99.90
15103;DHT22;7652;53.584;9.998;2023-08-24T04:57:07;18.10;99.90
15103;DHT22;7652;53.584;9.998;2023-08-24T05:00:29;18.10;99.90
15103;DHT22;7652;53.584;9.998;2023-08-24T05:03:54;18.20;99.90
15103;DHT22;7652;53.584;9.998;2023-08-24T05:07:16;18.20;99.90
15103;DHT22;7652;53.584;9.998;2023-08-24T05:10:38;18.20;99.90
15103;DHT22;7652;53.584;9.998;2023-08-24T05:13:59;18.20;99.90
15103;DHT22;7652;53.584;9.998;2023-08-24T05:17:21;18.20;99.90
15103;DHT22;7652;53.584;9.998;2023-08-24T05:20:45;18.20;99.90
15103;DHT22;7652;53.584;9.998;2023-08-24T05:24:08;18.20;99.90
15103;DHT22;7652;53.584;9.998;2023-08-24T05:27:29;18.30;99.90
15103;DHT22;7652;53.584;9.998;2023-08-24T05:30:51;18.30;99.90
15103;DHT22;7652;53.584;9.998;2023-08-24T05:34:12;18.40;99.90
15103;DHT22;7652;53.584;9.998;2023-08-24T05:37:34;18.50;99.90
15103;DHT22;7652;53.584;9.998;2023-08-24T05:40:57;18.50;99.90
15103;DHT22;7652;53.584;9.998;2023-08-24T05:44:19;18.60;99.90
15103;DHT22;7652;53.584;9.998;2023-08-24T05:47:41;18.60;99.90
15103;DHT22;7652;53.584;9.998;2023-08-24T05:51:03;18.60;99.90
15103;DHT22;7652;53.584;9.998;2023-08-24T05:54:26;18.80;99.90
15103;DHT22;7652;53.584;9.998;2023-08-24T05:57:49;19.00;99.90
15103;DHT22;7652;53.584;9.998;2023-08-24T06:01:11;19.00;99.90
15103;DHT22;7652;53.584;9.998;2023-08-24T06:04:32;18.90;99.90
15103;DHT22;7652;53.584;9.998;2023-08-24T06:07:54;18.80;99.90
15103;DHT22;7652;53.584;9.998;2023-08-24T06:11:15;18.80;99.90
15103;DHT22;7652;53.584;9.998;2023-08-24T06:14:38;18.80;99.90
15103;DHT22;7652;53.584;9.998;2023-08-24T06:17:59;18.90;99.90
15103;DHT22;7652;53.584;9.998;2023-08-24T06:21:21;19.00;99.90
15103;DHT22;7652;53.584;9.998;2023-08-24T06:24:42;19.00;99.90
15103;DHT22;7652;53.584;9.998;2023-08-24T06:28:04;19.00;99.90
15103;DHT22;7652;53.584;9.998;2023-08-24T06:31:28;19.00;99.90
15103;DHT22;7652;53.584;9.998;2023-08-24T06:34:51;19.00;99.90
15103;DHT22;7652;53.584;9.998;2023-08-24T06:38:16;19.10;99.90
15103;DHT22;7652;53.584;9.998;2023-08-24T06:41:38;19.20;99.90
15103;DHT22;7652;53.584;9.998;2023-08-24T06:44:59;19.10;99.90
15103;DHT22;7652;53.584;9.998;2023-08-24T06:48:22;19.20;99.90
15103;DHT22;7652;53.584;9.998;2023-08-24T06:51:43;19.30;99.90
15103;DHT22;7652;53.584;9.998;2023-08-24T06:55:06;19.40;99.90
15103;DHT22;7652;53.584;9.998;2023-08-24T06:58:27;19.50;99.90
15103;DHT22;7652;53.584;9.998;2023-08-24T07:01:49;19.50;99.90
15103;DHT22;7652;53.584;9.998;2023-08-24T07:05:12;19.50;99.90
15103;DHT22;7652;53.584;9.998;2023-08-24T07:08:35;19.50;99.90
15103;DHT22;7652;53.584;9.998;2023-08-24T07:11:57;19.60;99.90
15103;DHT22;7652;53.584;9.998;2023-08-24T07:15:19;19.60;99.90
15103;DHT22;7652;53.584;9.998;2023-08-24T07:18:41;19.70;99.90
15103;DHT22;7652;53.584;9.998;2023-08-24T07:22:04;19.70;99.90
15103;DHT22;7652;53.584;9.998;2023-08-24T07:25:25;19.80;99.90
15103;DHT22;7652;53.584;9.998;2023-08-24T07:28:48;19.90;99.90
15103;DHT22;7652;53.584;9.998;2023-08-24T07:32:09;20.10;99.90
15103;DHT22;7652;53.584;9.998;2023-08-24T07:35:31;20.40;99.90
15103;DHT22;7652;53.584;9.998;2023-08-24T07:38:54;20.50;99.90
15103;DHT22;7652;53.584;9.998;2023-08-24T07:42:19;20.50;99.90
15103;DHT22;7652;53.584;9.998;2023-08-24T07:45:40;20.50;99.90
15103;DHT22;7652;53.584;9.998;2023-08-24T07:49:02;20.70;99.90
15103;DHT22;7652;53.584;9.998;2023-08-24T07:52:23;20.80;99.90
15103;DHT22;7652;53.584;9.998;2023-08-24T07:55:49;21.00;99.90
15103;DHT22;7652;53.584;9.998;2023-08-24T07:59:11;21.30;99.90
15103;DHT22;7652;53.584;9.998;2023-08-24T08:02:32;21.60;99.90
15103;DHT22;7652;53.584;9.998;2023-08-24T08:05:54;21.80;99.90
15103;DHT22;7652;53.584;9.998;2023-08-24T08:09:16;21.80;99.90
15103;DHT22;7652;53.584;9.998;2023-08-24T08:12:39;21.90;99.90
15103;DHT22;7652;53.584;9.998;2023-08-24T08:16:01;21.90;99.90
15103;DHT22;7652;53.584;9.998;2023-08-24T08:19:24;21.90;99.90
15103;DHT22;7652;53.584;9.998;2023-08-24T08:22:48;22.00;99.90
15103;DHT22;7652;53.584;9.998;2023-08-24T08:26:11;22.00;99.90
15103;DHT22;7652;53.584;9.998;2023-08-24T08:29:35;22.10;99.90
15103;DHT22;7652;53.584;9.998;2023-08-24T08:32:57;22.20;99.90
15103;DHT22;7652;53.584;9.998;2023-08-24T08:36:18;22.40;99.90
15103;DHT22;7652;53.584;9.998;2023-08-24T08:39:39;22.80;99.90
15103;DHT22;7652;53.584;9.998;2023-08-24T08:43:01;23.20;99.90
15103;DHT22;7652;53.584;9.998;2023-08-24T08:46:24;23.40;99.90
15103;DHT22;7652;53.584;9.998;2023-08-24T08:49:47;23.60;99.90
15103;DHT22;7652;53.584;9.998;2023-08-24T08:53:09;23.50;99.90
15103;DHT22;7652;53.584;9.998;2023-08-24T08:56:31;23.70;99.90
15103;DHT22;7652;53.584;9.998;2023-08-24T08:59:53;23.80;99.90
15103;DHT22;7652;53.584;9.998;2023-08-24T09:03:18;23.60;99.90
15103;DHT22;7652;53.584;9.998;2023-08-24T09:06:40;23.50;99.90
15103;DHT22;7652;53.584;9.998;2023-08-24T09:10:01;23.30;99.90
15103;DHT22;7652;53.584;9.998;2023-08-24T09:13:24;23.20;99.90
15103;DHT22;7652;53.584;9.998;2023-08-24T09:16:46;23.30;99.90
15103;DHT22;7652;53.584;9.998;2023-08-24T09:20:10;23.20;99.90
15103;DHT22;7652;53.584;9.998;2023-08-24T09:23:32;23.10;99.90
15103;DHT22;7652;53.584;9.998;2023-08-24T09:26:53;23.10;99.90
15103;DHT22;7652;53.584;9.998;2023-08-24T09:30:15;23.10;99.90
15103;DHT22;7652;53.584;9.998;2023-08-24T09:33:36;23.20;99.90
15103;DHT22;7652;53.584;9.998;2023-08-24T09:36:59;23.30;99.90
15103;DHT22;7652;53.584;9.998;2023-08-24T09:40:24;23.50;99.90
15103;DHT22;7652;53.584;9.998;2023-08-24T09:43:45;23.70;99.90
15103;DHT22;7652;53.584;9.998;2023-08-24T09:47:09;23.80;99.90
15103;DHT22;7652;53.584;9.998;2023-08-24T09:50:32;23.80;99.90
15103;DHT22;7652;53.584;9.998;2023-08-24T09:53:57;23.90;99.90
15103;DHT22;7652;53.584;9.998;2023-08-24T09:57:20;24.00;99.90
15103;DHT22;7652;53.584;9.998;2023-08-24T10:00:43;24.00;99.90
15103;DHT22;7652;53.584;9.998;2023-08-24T10:04:08;24.00;99.90
15103;DHT22;7652;53.584;9.998;2023-08-24T10:07:30;23.90;99.90
15103;DHT22;7652;53.584;9.998;2023-08-24T10:10:56;23.80;99.90
15103;DHT22;7652;53.584;9.998;2023-08-24T10:14:24;24.20;99.90
15103;DHT22;7652;53.584;9.998;2023-08-24T10:17:47;24.70;99.90
15103;DHT22;7652;53.584;9.998;2023-08-24T10:21:09;25.30;99.90
15103;DHT22;7652;53.584;9.998;2023-08-24T10:24:32;25.60;99.90
15103;DHT22;7652;53.584;9.998;2023-08-24T10:27:55;26.10;99.90
15103;DHT22;7652;53.584;9.998;2023-08-24T10:31:17;26.60;99.90
15103;DHT22;7652;53.584;9.998;2023-08-24T10:34:39;26.90;99.90
15103;DHT22;7652;53.584;9.998;2023-08-24T10:38:01;26.80;99.90
15103;DHT22;7652;53.584;9.998;2023-08-24T10:41:26;26.80;99.90
15103;DHT22;7652;53.584;9.998;2023-08-24T10:44:49;26.80;99.90
15103;DHT22;7652;53.584;9.998;2023-08-24T10:48:11;27.10;99.90
15103;DHT22;7652;53.584;9.998;2023-08-24T10:51:43;27.30;99.90
15103;DHT22;7652;53.584;9.998;2023-08-24T10:55:22;27.30;99.90
15103;DHT22;7652;53.584;9.998;2023-08-24T10:58:44;27.50;99.90
15103;DHT22;7652;53.584;9.998;2023-08-24T11:02:18;27.70;99.90
15103;DHT22;7652;53.584;9.998;2023-08-24T11:05:42;27.70;99.90
15103;DHT22;7652;53.584;9.998;2023-08-24T11:09:08;27.60;99.90
15103;DHT22;7652;53.584;9.998;2023-08-24T11:13:04;27.30;99.90
15103;DHT22;7652;53.584;9.998;2023-08-24T11:16:38;27.30;99.90
15103;DHT22;7652;53.584;9.998;2023-08-24T11:20:03;26.90;99.90
15103;DHT22;7652;53.584;9.998;2023-08-24T11:23:26;26.80;99.90
15103;DHT22;7652;53.584;9.998;2023-08-24T11:26:48;26.60;99.90
15103;DHT22;7652;53.584;9.998;2023-08-24T11:30:10;26.50;99.90
15103;DHT22;7652;53.584;9.998;2023-08-24T11:33:33;26.80;99.90
15103;DHT22;7652;53.584;9.998;2023-08-24T11:36:56;26.80;99.90
15103;DHT22;7652;53.584;9.998;2023-08-24T11:40:18;26.30;99.90
15103;DHT22;7652;53.584;9.998;2023-08-24T11:43:41;26.40;99.90
15103;DHT22;7652;53.584;9.998;2023-08-24T11:47:03;26.70;99.90
15103;DHT22;7652;53.584;9.998;2023-08-24T11:50:25;26.80;99.90
15103;DHT22;7652;53.584;9.998;2023-08-24T11:53:47;27.00;99.90
15103;DHT22;7652;53.584;9.998;2023-08-24T11:57:10;26.90;99.90
15103;DHT22;7652;53.584;9.998;2023-08-24T12:00:32;26.70;99.90
15103;DHT22;7652;53.584;9.998;2023-08-24T12:03:53;27.10;99.90
15103;DHT22;7652;53.584;9.998;2023-08-24T12:07:15;27.30;99.90
15103;DHT22;7652;53.584;9.998;2023-08-24T12:10:43;27.40;99.90
15103;DHT22;7652;53.584;9.998;2023-08-24T12:14:05;27.10;99.90
15103;DHT22;7652;53.584;9.998;2023-08-24T12:17:42;27.20;99.90
15103;DHT22;7652;53.584;9.998;2023-08-24T12:21:03;27.50;99.90
15103;DHT22;7652;53.584;9.998;2023-08-24T12:24:29;27.70;99.90
15103;DHT22;7652;53.584;9.998;2023-08-24T12:27:52;28.00;99.90
15103;DHT22;7652;53.584;9.998;2023-08-24T12:31:14;28.20;99.90
15103;DHT22;7652;53.584;9.998;2023-08-24T12:34:38;27.90;99.90
15103;DHT22;7652;53.584;9.998;2023-08-24T12:37:59;28.10;99.90
15103;DHT22;7652;53.584;9.998;2023-08-24T12:41:21;28.20;99.90
15103;DHT22;7652;53.584;9.998;2023-08-24T12:44:44;28.20;99.90
15103;DHT22;7652;53.584;9.998;2023-08-24T12:48:06;28.50;99.90
15103;DHT22;7652;53.584;9.998;2023-08-24T12:51:28;28.50;99.90
15103;DHT22;7652;53.584;9.998;2023-08-24T12:54:49;28.50;99.90
15103;DHT22;7652;53.584;9.998;2023-08-24T12:58:11;28.70;99.90
15103;DHT22;7652;53.584;9.998;2023-08-24T13:01:33;28.60;99.90
15103;DHT22;7652;53.584;9.998;2023-08-24T13:04:55;29.00;99.90
15103;DHT22;7652;53.584;9.998;2023-08-24T13:08:21;29.30;99.90
15103;DHT22;7652;53.584;9.998;2023-08-24T13:11:43;29.70;99.90
15103;DHT22;7652;53.584;9.998;2023-08-24T13:15:05;30.20;99.90
15103;DHT22;7652;53.584;9.998;2023-08-24T13:18:28;30.40;99.50
15103;DHT22;7652;53.584;9.998;2023-08-24T13:21:50;30.30;99.30
15103;DHT22;7652;53.584;9.998;2023-08-24T13:25:11;30.50;99.30
15103;DHT22;7652;53.584;9.998;2023-08-24T13:28:33;30.60;99.20
15103;DHT22;7652;53.584;9.998;2023-08-24T13:31:55;30.60;99.20
15103;DHT22;7652;53.584;9.998;2023-08-24T13:35:18;30.00;99.90
15103;DHT22;7652;53.584;9.998;2023-08-24T13:38:39;29.60;99.90
15103;DHT22;7652;53.584;9.998;2023-08-24T13:42:01;29.30;99.90
15103;DHT22;7652;53.584;9.998;2023-08-24T13:45:23;28.50;99.90
15103;DHT22;7652;53.584;9.998;2023-08-24T13:48:45;28.50;99.90
15103;DHT22;7652;53.584;9.998;2023-08-24T13:52:08;28.20;99.90
15103;DHT22;7652;53.584;9.998;2023-08-24T13:55:29;27.90;99.90
15103;DHT22;7652;53.584;9.998;2023-08-24T13:58:52;27.90;99.90
15103;DHT22;7652;53.584;9.998;2023-08-24T14:02:14;27.90;99.90
15103;DHT22;7652;53.584;9.998;2023-08-24T14:05:38;27.50;99.90
15103;DHT22;7652;53.584;9.998;2023-08-24T14:09:02;27.20;99.90
15103;DHT22;7652;53.584;9.998;2023-08-24T14:12:24;27.30;99.90
15103;DHT22;7652;53.584;9.998;2023-08-24T14:15:47;27.20;99.90
15103;DHT22;7652;53.584;9.998;2023-08-24T14:19:09;27.20;99.90
15103;DHT22;7652;53.584;9.998;2023-08-24T14:22:32;27.20;99.90
15103;DHT22;7652;53.584;9.998;2023-08-24T14:25:54;27.20;99.90
15103;DHT22;7652;53.584;9.998;2023-08-24T14:29:16;27.00;99.90
15103;DHT22;7652;53.584;9.998;2023-08-24T14:32:37;27.20;99.90
15103;DHT22;7652;53.584;9.998;2023-08-24T14:35:59;27.20;99.90
15103;DHT22;7652;53.584;9.998;2023-08-24T14:39:21;27.00;99.90
15103;DHT22;7652;53.584;9.998;2023-08-24T14:42:43;27.00;99.90
15103;DHT22;7652;53.584;9.998;2023-08-24T14:46:05;27.00;99.90
15103;DHT22;7652;53.584;9.998;2023-08-24T14:49:27;27.00;99.90
15103;DHT22;7652;53.584;9.998;2023-08-24T14:52:48;26.90;99.90
15103;DHT22;7652;53.584;9.998;2023-08-24T14:56:10;26.90;99.90
15103;DHT22;7652;53.584;9.998;2023-08-24T14:59:33;26.90;99.90
15103;DHT22;7652;53.584;9.998;2023-08-24T15:02:55;26.90;99.90
15103;DHT22;7652;53.584;9.998;2023-08-24T15:06:17;26.60;99.90
15103;DHT22;7652;53.584;9.998;2023-08-24T15:09:38;26.50;99.90
15103;DHT22;7652;53.584;9.998;2023-08-24T15:13:00;26.40;99.90
15103;DHT22;7652;53.584;9.998;2023-08-24T15:16:23;26.40;99.90
15103;DHT22;7652;53.584;9.998;2023-08-24T15:19:44;26.50;99.90
15103;DHT22;7652;53.584;9.998;2023-08-24T15:23:06;26.50;99.90
15103;DHT22;7652;53.584;9.998;2023-08-24T15:26:28;26.40;99.90
15103;DHT22;7652;53.584;9.998;2023-08-24T15:29:49;26.30;99.90
15103;DHT22;7652;53.584;9.998;2023-08-24T15:33:12;26.30;99.90
15103;DHT22;7652;53.584;9.998;2023-08-24T15:36:34;26.40;99.90
15103;DHT22;7652;53.584;9.998;2023-08-24T15:39:56;26.30;99.90
15103;DHT22;7652;53.584;9.998;2023-08-24T15:43:18;26.30;99.90
15103;DHT22;7652;53.584;9.998;2023-08-24T15:46:39;26.30;99.90
15103;DHT22;7652;53.584;9.998;2023-08-24T15:50:02;26.10;99.90
15103;DHT22;7652;53.584;9.998;2023-08-24T15:53:23;26.10;99.90
15103;DHT22;7652;53.584;9.998;2023-08-24T15:56:45;26.10;99.90
15103;DHT22;7652;53.584;9.998;2023-08-24T16:00:09;26.10;99.90
15103;DHT22;7652;53.584;9.998;2023-08-24T16:03:31;26.00;99.90
15103;DHT22;7652;53.584;9.998;2023-08-24T16:06:55;25.90;99.90
15103;DHT22;7652;53.584;9.998;2023-08-24T16:10:16;25.90;99.90
15103;DHT22;7652;53.584;9.998;2023-08-24T16:13:38;25.90;99.90
15103;DHT22;7652;53.584;9.998;2023-08-24T16:17:00;25.90;99.90
15103;DHT22;7652;53.584;9.998;2023-08-24T16:20:21;25.90;99.90
15103;DHT22;7652;53.584;9.998;2023-08-24T16:23:44;25.80;99.90
15103;DHT22;7652;53.584;9.998;2023-08-24T16:27:05;25.80;99.90
15103;DHT22;7652;53.584;9.998;2023-08-24T16:30:27;25.80;99.90
15103;DHT22;7652;53.584;9.998;2023-08-24T16:33:48;25.80;99.90
15103;DHT22;7652;53.584;9.998;2023-08-24T16:37:10;25.80;99.90
15103;DHT22;7652;53.584;9.998;2023-08-24T16:40:34;25.70;99.90
15103;DHT22;7652;53.584;9.998;2023-08-24T16:43:56;25.70;99.90
15103;DHT22;7652;53.584;9.998;2023-08-24T16:47:17;25.70;99.90
15103;DHT22;7652;53.584;9.998;2023-08-24T16:50:39;25.60;99.90
15103;DHT22;7652;53.584;9.998;2023-08-24T16:54:00;25.60;99.90
15103;DHT22;7652;53.584;9.998;2023-08-24T16:57:23;25.50;99.90
15103;DHT22;7652;53.584;9.998;2023-08-24T17:00:44;25.50;99.90
15103;DHT22;7652;53.584;9.998;2023-08-24T17:04:06;25.50;99.90
15103;DHT22;7652;53.584;9.998;2023-08-24T17:07:28;25.40;99.90
15103;DHT22;7652;53.584;9.998;2023-08-24T17:10:50;25.30;99.90
15103;DHT22;7652;53.584;9.998;2023-08-24T17:14:13;25.20;99.90
15103;DHT22;7652;53.584;9.998;2023-08-24T17:17:34;25.20;99.90
15103;DHT22;7652;53.584;9.998;2023-08-24T17:20:56;25.20;99.90
15103;DHT22;7652;53.584;9.998;2023-08-24T17:24:17;25.20;99.90
15103;DHT22;7652;53.584;9.998;2023-08-24T17:27:40;25.10;99.90
15103;DHT22;7652;53.584;9.998;2023-08-24T17:31:03;25.10;99.90
15103;DHT22;7652;53.584;9.998;2023-08-24T17:34:24;25.00;99.90
15103;DHT22;7652;53.584;9.998;2023-08-24T17:37:46;25.00;99.90
15103;DHT22;7652;53.584;9.998;2023-08-24T17:41:08;24.90;99.90
15103;DHT22;7652;53.584;9.998;2023-08-24T17:44:29;24.90;99.90
15103;DHT22;7652;53.584;9.998;2023-08-24T17:47:52;24.80;99.90
15103;DHT22;7652;53.584;9.998;2023-08-24T17:51:14;24.80;99.90
15103;DHT22;7652;53.584;9.998;2023-08-24T17:54:36;24.70;99.90
15103;DHT22;7652;53.584;9.998;2023-08-24T17:57:57;24.60;99.90
15103;DHT22;7652;53.584;9.998;2023-08-24T18:01:18;24.60;99.90
15103;DHT22;7652;53.584;9.998;2023-08-24T18:04:41;24.50;99.90
15103;DHT22;7652;53.584;9.998;2023-08-24T18:08:06;24.50;99.90
15103;DHT22;7652;53.584;9.998;2023-08-24T18:11:27;24.50;99.90
15103;DHT22;7652;53.584;9.998;2023-08-24T18:14:48;24.50;99.90
15103;DHT22;7652;53.584;9.998;2023-08-24T18:18:10;24.60;99.90
15103;DHT22;7652;53.584;9.998;2023-08-24T18:21:33;24.50;99.90
15103;DHT22;7652;53.584;9.998;2023-08-24T18:24:54;24.40;99.90
15103;DHT22;7652;53.584;9.998;2023-08-24T18:28:16;24.40;99.90
15103;DHT22;7652;53.584;9.998;2023-08-24T18:31:37;24.30;99.90
15103;DHT22;7652;53.584;9.998;2023-08-24T18:35:00;24.30;99.90
15103;DHT22;7652;53.584;9.998;2023-08-24T18:38:24;24.30;99.90
15103;DHT22;7652;53.584;9.998;2023-08-24T18:41:45;24.20;99.90
15103;DHT22;7652;53.584;9.998;2023-08-24T18:45:09;24.10;99.90
15103;DHT22;7652;53.584;9.998;2023-08-24T18:48:31;24.10;99.90
15103;DHT22;7652;53.584;9.998;2023-08-24T18:51:52;24.10;99.90
15103;DHT22;7652;53.584;9.998;2023-08-24T18:55:16;24.10;99.90
15103;DHT22;7652;53.584;9.998;2023-08-24T18:58:37;24.00;99.90
15103;DHT22;7652;53.584;9.998;2023-08-24T19:01:59;23.90;99.90
15103;DHT22;7652;53.584;9.998;2023-08-24T19:05:20;24.00;99.90
15103;DHT22;7652;53.584;9.998;2023-08-24T19:08:42;24.00;99.90
15103;DHT22;7652;53.584;9.998;2023-08-24T19:12:05;24.00;99.90
15103;DHT22;7652;53.584;9.998;2023-08-24T19:15:27;24.00;99.90
15103;DHT22;7652;53.584;9.998;2023-08-24T19:18:49;24.00;99.90
15103;DHT22;7652;53.584;9.998;2023-08-24T19:22:11;23.90;99.90
15103;DHT22;7652;53.584;9.998;2023-08-24T19:25:32;23.90;99.90
15103;DHT22;7652;53.584;9.998;2023-08-24T19:28:56;23.90;99.90
15103;DHT22;7652;53.584;9.998;2023-08-24T19:32:17;23.90;99.90
15103;DHT22;7652;53.584;9.998;2023-08-24T19:35:39;23.80;99.90
15103;DHT22;7652;53.584;9.998;2023-08-24T19:39:00;23.80;99.90
15103;DHT22;7652;53.584;9.998;2023-08-24T19:42:22;23.80;99.90
15103;DHT22;7652;53.584;9.998;2023-08-24T19:45:46;23.80;99.90
15103;DHT22;7652;53.584;9.998;2023-08-24T19:49:08;23.80;99.90
15103;DHT22;7652;53.584;9.998;2023-08-24T19:52:30;23.80;99.90
15103;DHT22;7652;53.584;9.998;2023-08-24T19:55:52;23.70;99.90
15103;DHT22;7652;53.584;9.998;2023-08-24T19:59:15;23.70;99.90
15103;DHT22;7652;53.584;9.998;2023-08-24T20:02:38;23.70;99.90
15103;DHT22;7652;53.584;9.998;2023-08-24T20:06:01;23.80;99.90
15103;DHT22;7652;53.584;9.998;2023-08-24T20:09:24;23.80;99.90
15103;DHT22;7652;53.584;9.998;2023-08-24T20:12:46;23.80;99.90
15103;DHT22;7652;53.584;9.998;2023-08-24T20:16:08;23.80;99.90
15103;DHT22;7652;53.584;9.998;2023-08-24T20:19:31;23.70;99.90
15103;DHT22;7652;53.584;9.998;2023-08-24T20:22:52;23.70;99.90
15103;DHT22;7652;53.584;9.998;2023-08-24T20:26:16;23.70;99.90
15103;DHT22;7652;53.584;9.998;2023-08-24T20:29:37;23.70;99.90
15103;DHT22;7652;53.584;9.998;2023-08-24T20:32:58;23.50;99.90
15103;DHT22;7652;53.584;9.998;2023-08-24T20:36:21;23.60;99.90
15103;DHT22;7652;53.584;9.998;2023-08-24T20:39:43;23.60;99.90
15103;DHT22;7652;53.584;9.998;2023-08-24T20:43:04;23.60;99.90
15103;DHT22;7652;53.584;9.998;2023-08-24T20:46:25;23.60;99.90
15103;DHT22;7652;53.584;9.998;2023-08-24T20:49:47;23.50;99.90
15103;DHT22;7652;53.584;9.998;2023-08-24T20:53:11;23.50;99.90
15103;DHT22;7652;53.584;9.998;2023-08-24T20:56:33;23.50;99.90
15103;DHT22;7652;53.584;9.998;2023-08-24T20:59:55;23.40;99.90
15103;DHT22;7652;53.584;9.998;2023-08-24T21:03:16;23.40;99.90
15103;DHT22;7652;53.584;9.998;2023-08-24T21:06:38;23.40;99.90
15103;DHT22;7652;53.584;9.998;2023-08-24T21:10:01;23.00;99.90
15103;DHT22;7652;53.584;9.998;2023-08-24T21:13:23;22.30;99.90
15103;DHT22;7652;53.584;9.998;2023-08-24T21:16:45;21.90;99.90
15103;DHT22;7652;53.584;9.998;2023-08-24T21:20:07;21.80;99.90
15103;DHT22;7652;53.584;9.998;2023-08-24T21:23:29;21.70;99.90
15103;DHT22;7652;53.584;9.998;2023-08-24T21:26:52;21.50;99.90
15103;DHT22;7652;53.584;9.998;2023-08-24T21:30:14;21.50;99.90
15103;DHT22;7652;53.584;9.998;2023-08-24T21:33:35;21.60;99.90
15103;DHT22;7652;53.584;9.998;2023-08-24T21:36:57;21.60;99.90